createdAt,value
2018-01-16T00:00:51.216Z,63.8
2018-01-16T00:01:55.400Z,63.5
2018-01-16T00:02:58.842Z,63.6
2018-01-16T00:04:02.083Z,63.8
2018-01-16T00:05:05.415Z,63.7
2018-01-16T00:06:08.767Z,63.8
2018-01-16T00:07:12.046Z,63.9
2018-01-16T00:08:15.458Z,63.9
2018-01-16T00:09:18.659Z,63.9
2018-01-16T00:10:27.449Z,64.2
2018-01-16T00:11:30.989Z,64.3
2018-01-16T00:12:34.502Z,64.4
2018-01-16T00:13:37.994Z,64.5
2018-01-16T00:14:41.474Z,64.7
2018-01-16T00:15:44.883Z,64.8
2018-01-16T00:16:49.630Z,65
2018-01-16T00:17:53.062Z,65.5
2018-01-16T00:18:56.450Z,65.4
2018-01-16T00:20:00.387Z,65.4
2018-01-16T00:21:07.441Z,65.5
2018-01-16T00:22:10.717Z,65.9
2018-01-16T00:23:14.157Z,66.2
2018-01-16T00:24:17.516Z,66.5
2018-01-16T00:25:20.894Z,66.6
2018-01-16T00:26:25.051Z,66.5
2018-01-16T00:27:29.048Z,66.5
2018-01-16T00:28:32.427Z,66.6
2018-01-16T00:29:36.823Z,67.2
2018-01-16T00:30:40.343Z,67.9
2018-01-16T00:31:47.518Z,68.4
2018-01-16T00:32:51.986Z,69.3
2018-01-16T00:33:55.359Z,69.7
2018-01-16T00:34:59.232Z,70.2
2018-01-16T00:36:02.580Z,71
2018-01-16T00:37:06.626Z,71.4
2018-01-16T00:38:10.697Z,71.8
2018-01-16T00:39:13.989Z,71.9
2018-01-16T00:40:17.259Z,71.9
2018-01-16T00:41:20.539Z,71.6
2018-01-16T00:42:27.526Z,71.1
2018-01-16T00:43:31.603Z,71.2
2018-01-16T00:44:35.657Z,71.3
2018-01-16T00:45:40.428Z,71.9
2018-01-16T00:46:43.813Z,72.4
2018-01-16T00:47:48.552Z,72.9
2018-01-16T00:48:51.909Z,73.7
2018-01-16T00:49:55.305Z,74.1
2018-01-16T00:50:58.139Z,74.6
2018-01-16T00:52:01.507Z,75.4
2018-01-16T00:53:08.508Z,75.6
2018-01-16T00:54:12.052Z,75.9
2018-01-16T00:55:15.446Z,76.2
2018-01-16T00:56:18.573Z,76.5
2018-01-16T00:57:22.034Z,76.4
2018-01-16T00:58:25.390Z,76.6
2018-01-16T00:59:28.680Z,77
2018-01-16T01:00:32.064Z,77.2
2018-01-16T01:01:35.604Z,77.6
2018-01-16T01:02:38.921Z,77.6
2018-01-16T01:03:45.851Z,78.7
2018-01-16T01:04:49.253Z,78.3
2018-01-16T01:05:53.171Z,78.4
2018-01-16T01:06:56.375Z,78.6
2018-01-16T01:08:00.583Z,78.5
2018-01-16T01:09:03.804Z,78.4
2018-01-16T01:10:07.130Z,78.1
2018-01-16T01:11:10.749Z,78.1
2018-01-16T01:12:14.249Z,78
2018-01-16T01:13:17.616Z,77.9
2018-01-16T01:14:24.864Z,77.8
2018-01-16T01:15:28.442Z,77.4
2018-01-16T01:16:31.943Z,77.2
2018-01-16T01:17:35.881Z,76.8
2018-01-16T01:18:39.148Z,76.5
2018-01-16T01:19:42.561Z,76.2
2018-01-16T01:20:47.837Z,76.2
2018-01-16T01:21:51.929Z,76.1
2018-01-16T01:22:56.082Z,76.1
2018-01-16T01:23:59.475Z,76.1
2018-01-16T01:25:06.324Z,76.2
2018-01-16T01:26:09.722Z,76.4
2018-01-16T01:27:13.086Z,76.4
2018-01-16T01:28:16.526Z,76.5
2018-01-16T01:29:20.587Z,76.2
2018-01-16T01:30:24.016Z,76.4
2018-01-16T01:31:27.457Z,76.1
2018-01-16T01:32:32.705Z,76.2
2018-01-16T01:33:36.351Z,75.9
2018-01-16T01:34:41.130Z,75.8
2018-01-16T01:35:48.581Z,75.7
2018-01-16T01:36:53.043Z,75.5
2018-01-16T01:37:57.920Z,75.3
2018-01-16T01:39:01.186Z,75.1
2018-01-16T01:40:04.643Z,74.9
2018-01-16T01:41:08.019Z,74.6
2018-01-16T01:42:11.123Z,74.5
2018-01-16T01:43:14.428Z,74.6
2018-01-16T01:44:17.828Z,74.6
2018-01-16T01:45:21.199Z,74.2
2018-01-16T01:46:28.531Z,74.2
2018-01-16T01:47:31.868Z,73.8
2018-01-16T01:48:35.226Z,73.3
2018-01-16T01:49:38.389Z,73.5
2018-01-16T01:50:42.299Z,74.2
2018-01-16T01:51:45.383Z,73.3
2018-01-16T01:52:48.806Z,73.1
2018-01-16T01:53:52.275Z,73.2
2018-01-16T01:54:56.403Z,73.1
2018-01-16T01:55:59.453Z,73.2
2018-01-16T01:57:06.467Z,73
2018-01-16T01:58:10.018Z,72.8
2018-01-16T01:59:13.429Z,72.8
2018-01-16T02:00:17.021Z,72.8
2018-01-16T02:01:20.506Z,72.7
2018-01-16T02:02:23.864Z,72.6
2018-01-16T02:03:27.353Z,72.6
2018-01-16T02:04:30.776Z,72.6
2018-01-16T02:05:35.042Z,72.2
2018-01-16T02:06:39.011Z,72.5
2018-01-16T02:07:45.686Z,72.5
2018-01-16T02:08:49.004Z,72.1
2018-01-16T02:09:53.247Z,72
2018-01-16T02:10:56.677Z,72.1
2018-01-16T02:12:00.032Z,71.8
2018-01-16T02:13:03.479Z,71.7
2018-01-16T02:14:07.596Z,71.6
2018-01-16T02:15:10.850Z,71.7
2018-01-16T02:16:14.234Z,71.5
2018-01-16T02:17:18.195Z,71.5
2018-01-16T02:18:24.880Z,71.5
2018-01-16T02:19:28.039Z,71.2
2018-01-16T02:20:31.468Z,71.1
2018-01-16T02:21:34.719Z,71.1
2018-01-16T02:22:38.114Z,71.1
2018-01-16T02:23:41.290Z,71.3
2018-01-16T02:24:44.641Z,71.3
2018-01-16T02:25:48.095Z,71.3
2018-01-16T02:26:51.291Z,71.5
2018-01-16T02:27:54.693Z,71.3
2018-01-16T02:29:02.495Z,71.2
2018-01-16T02:30:05.922Z,71.8
2018-01-16T02:31:09.305Z,71.7
2018-01-16T02:32:13.290Z,71.6
2018-01-16T02:33:16.762Z,71.2
2018-01-16T02:34:20.222Z,71.2
2018-01-16T02:35:23.598Z,71.1
2018-01-16T02:36:27.025Z,70.9
2018-01-16T02:37:30.494Z,71.3
2018-01-16T02:38:34.061Z,71.9
2018-01-16T02:39:40.632Z,72.2
2018-01-16T02:40:45.034Z,72.1
2018-01-16T02:41:48.515Z,72.2
2018-01-16T02:42:52.363Z,71.8
2018-01-16T02:43:55.821Z,71.9
2018-01-16T02:44:59.122Z,72.1
2018-01-16T02:46:02.438Z,72.4
2018-01-16T02:47:06.124Z,72.3
2018-01-16T02:48:09.585Z,71.9
2018-01-16T02:49:13.113Z,72
2018-01-16T02:50:20.603Z,71.8
2018-01-16T02:51:24.045Z,72
2018-01-16T02:52:27.194Z,72.2
2018-01-16T02:53:31.549Z,72.3
2018-01-16T02:54:35.025Z,72.2
2018-01-16T02:55:38.492Z,72.1
2018-01-16T02:56:41.831Z,72.1
2018-01-16T02:57:45.244Z,72.4
2018-01-16T02:58:48.433Z,72.5
2018-01-16T02:59:51.782Z,72.7
2018-01-16T03:00:59.306Z,73.2
2018-01-16T03:02:02.444Z,73.4
2018-01-16T03:03:05.703Z,73.6
2018-01-16T03:04:08.989Z,73.6
2018-01-16T03:05:12.026Z,73.9
2018-01-16T03:06:16.114Z,74.1
2018-01-16T03:07:19.522Z,74.3
2018-01-16T03:08:23.983Z,74.2
2018-01-16T03:09:29.529Z,74.3
2018-01-16T03:10:32.866Z,74.5
2018-01-16T03:11:40.289Z,74.3
2018-01-16T03:12:43.625Z,74.4
2018-01-16T03:13:47.129Z,74.3
2018-01-16T03:14:51.058Z,74.4
2018-01-16T03:15:54.312Z,74.4
2018-01-16T03:16:57.739Z,74.8
2018-01-16T03:18:00.929Z,74.7
2018-01-16T03:19:04.273Z,74.9
2018-01-16T03:20:07.538Z,75
2018-01-16T03:21:11.049Z,74.8
2018-01-16T03:22:17.959Z,74.8
2018-01-16T03:23:21.254Z,74.7
2018-01-16T03:24:24.384Z,74.6
2018-01-16T03:25:27.665Z,74.6
2018-01-16T03:26:30.953Z,75
2018-01-16T03:27:34.363Z,74.9
2018-01-16T03:28:37.691Z,74.8
2018-01-16T03:29:41.116Z,74.5
2018-01-16T03:30:44.588Z,74.3
2018-01-16T03:31:49.777Z,74.5
2018-01-16T03:32:56.544Z,74.2
2018-01-16T03:33:59.502Z,73.8
2018-01-16T03:35:03.608Z,74
2018-01-16T03:36:07.102Z,74.1
2018-01-16T03:37:10.562Z,74
2018-01-16T03:38:13.841Z,73.9
2018-01-16T03:39:17.156Z,74
2018-01-16T03:40:20.642Z,74
2018-01-16T03:41:24.007Z,74
2018-01-16T03:42:27.788Z,73.8
2018-01-16T03:43:34.656Z,73.7
2018-01-16T03:44:38.673Z,73.6
2018-01-16T03:45:42.280Z,73.6
2018-01-16T03:46:46.736Z,73.9
2018-01-16T03:47:50.065Z,74.2
2018-01-16T03:48:53.527Z,74.1
2018-01-16T03:49:56.879Z,73.9
2018-01-16T03:51:00.362Z,73.8
2018-01-16T03:52:05.597Z,74.1
2018-01-16T03:53:08.820Z,74.1
2018-01-16T03:54:16.273Z,73.9
2018-01-16T03:55:19.755Z,73.9
2018-01-16T03:56:24.517Z,74.1
2018-01-16T03:57:28.647Z,74.2
2018-01-16T03:58:31.977Z,74.3
2018-01-16T03:59:35.326Z,74.2
2018-01-16T04:00:39.449Z,74.6
2018-01-16T04:01:44.576Z,75.5
2018-01-16T04:02:48.723Z,75.5
2018-01-16T04:03:52.479Z,76.6
2018-01-16T04:05:01.038Z,77.2
2018-01-16T04:06:06.513Z,77.1
2018-01-16T04:07:09.757Z,77.7
2018-01-16T04:08:13.865Z,78.4
2018-01-16T04:09:17.898Z,79.6
2018-01-16T04:10:21.254Z,79.9
2018-01-16T04:11:24.739Z,80.3
2018-01-16T04:12:28.422Z,80.7
2018-01-16T04:13:31.423Z,81
2018-01-16T04:14:35.849Z,81.2
2018-01-16T04:15:43.419Z,81.2
2018-01-16T04:16:49.734Z,82.1
2018-01-16T04:17:53.220Z,82.7
2018-01-16T04:18:57.550Z,82.3
2018-01-16T04:20:01.893Z,82.1
2018-01-16T04:21:04.902Z,82.7
2018-01-16T04:22:08.047Z,82.6
2018-01-16T04:23:11.360Z,82.5
2018-01-16T04:24:15.350Z,82.5
2018-01-16T04:25:18.976Z,82.7
2018-01-16T04:26:58.660Z,82.9
2018-01-16T04:28:01.845Z,83.3
2018-01-16T04:29:05.049Z,83.4
2018-01-16T04:30:09.094Z,83.3
2018-01-16T04:31:15.650Z,83.2
2018-01-16T04:32:19.099Z,83.6
2018-01-16T04:33:22.319Z,83.6
2018-01-16T04:34:25.660Z,83.8
2018-01-16T04:35:30.642Z,84.2
2018-01-16T04:36:34.061Z,84.2
2018-01-16T04:37:41.096Z,84.5
2018-01-16T04:38:44.385Z,84.8
2018-01-16T04:39:47.796Z,84.8
2018-01-16T04:40:52.073Z,84.4
2018-01-16T04:41:55.300Z,84.9
2018-01-16T04:42:59.399Z,84.5
2018-01-16T04:44:03.490Z,84.4
2018-01-16T04:45:06.971Z,84.5
2018-01-16T04:46:10.432Z,84.5
2018-01-16T04:47:13.925Z,84.6
2018-01-16T04:48:22.094Z,84.7
2018-01-16T04:49:26.161Z,85.1
2018-01-16T04:50:31.582Z,85.4
2018-01-16T04:51:35.680Z,85.2
2018-01-16T04:52:40.262Z,85
2018-01-16T04:53:44.805Z,85.7
2018-01-16T04:54:48.184Z,85.3
2018-01-16T04:55:51.531Z,85.2
2018-01-16T04:56:57.212Z,85
2018-01-16T04:58:00.770Z,84.5
2018-01-16T04:59:08.448Z,84.8
2018-01-16T05:00:12.729Z,83.6
2018-01-16T05:01:16.100Z,82.9
2018-01-16T05:02:20.383Z,82.3
2018-01-16T05:03:23.732Z,82
2018-01-16T05:04:27.008Z,82
2018-01-16T05:05:30.476Z,82.1
2018-01-16T05:06:35.055Z,81.7
2018-01-16T05:07:39.087Z,81.8
2018-01-16T05:08:43.124Z,81.7
2018-01-16T05:09:50.254Z,81.7
2018-01-16T05:10:54.439Z,82
2018-01-16T05:11:57.769Z,82.6
2018-01-16T05:13:03.157Z,82.1
2018-01-16T05:14:06.714Z,81.8
2018-01-16T05:15:10.782Z,81.1
2018-01-16T05:16:14.295Z,80.9
2018-01-16T05:17:17.661Z,80.6
2018-01-16T05:18:22.001Z,80.5
2018-01-16T05:19:25.493Z,80.7
2018-01-16T05:20:32.295Z,80.6
2018-01-16T05:21:36.898Z,80.2
2018-01-16T05:22:41.614Z,80.5
2018-01-16T05:23:45.036Z,80.2
2018-01-16T05:24:48.626Z,80
2018-01-16T05:25:52.653Z,80
2018-01-16T05:26:56.307Z,80.2
2018-01-16T05:27:59.796Z,80.6
2018-01-16T05:29:05.262Z,80.5
2018-01-16T05:30:08.809Z,80.7
2018-01-16T05:31:17.931Z,81
2018-01-16T05:32:21.925Z,81
2018-01-16T05:33:26.312Z,81.1
2018-01-16T05:34:29.685Z,81.1
2018-01-16T05:35:33.217Z,81.3
2018-01-16T05:36:36.712Z,81.8
2018-01-16T05:37:40.172Z,81.5
2018-01-16T05:38:43.790Z,82
2018-01-16T05:39:47.789Z,82.1
2018-01-16T05:40:51.239Z,82.5
2018-01-16T05:42:30.130Z,82.5
2018-01-16T05:43:33.690Z,82.6
2018-01-16T05:44:37.088Z,82.8
2018-01-16T05:45:42.275Z,83
2018-01-16T05:46:48.269Z,83
2018-01-16T05:47:52.514Z,83.5
2018-01-16T05:48:56.231Z,83.8
2018-01-16T05:50:00.696Z,83.8
2018-01-16T05:51:04.058Z,83.8
2018-01-16T05:52:08.195Z,83.7
2018-01-16T05:53:16.887Z,83.6
2018-01-16T05:54:21.304Z,83.9
2018-01-16T05:55:24.755Z,83.9
2018-01-16T05:56:29.205Z,84.3
2018-01-16T05:57:32.763Z,83.9
2018-01-16T05:58:37.065Z,84.3
2018-01-16T05:59:42.860Z,84.4
2018-01-16T06:00:46.177Z,84.8
2018-01-16T06:01:49.661Z,84.6
2018-01-16T06:02:54.347Z,84.3
2018-01-16T06:04:01.112Z,84.6
2018-01-16T06:05:04.559Z,85.1
2018-01-16T06:06:07.970Z,85.1
2018-01-16T06:07:12.146Z,84.9
2018-01-16T06:08:15.634Z,85
2018-01-16T06:09:19.577Z,85
2018-01-16T06:10:23.135Z,84.9
2018-01-16T06:11:28.077Z,85.1
2018-01-16T06:12:31.519Z,85
2018-01-16T06:13:35.885Z,84.9
2018-01-16T06:14:43.571Z,85.1
2018-01-16T06:15:46.992Z,85.3
2018-01-16T06:16:51.574Z,85.3
2018-01-16T06:17:54.853Z,85.4
2018-01-16T06:18:58.474Z,85.4
2018-01-16T06:20:01.776Z,85.4
2018-01-16T06:21:05.221Z,85.5
2018-01-16T06:22:08.580Z,85.2
2018-01-16T06:23:12.896Z,85.4
2018-01-16T06:24:16.360Z,85.3
2018-01-16T06:25:24.051Z,85.2
2018-01-16T06:26:28.800Z,85.1
2018-01-16T06:27:32.141Z,85
2018-01-16T06:28:36.598Z,85.1
2018-01-16T06:29:40.097Z,85
2018-01-16T06:30:43.442Z,86
2018-01-16T06:31:47.260Z,85.3
2018-01-16T06:32:52.106Z,85
2018-01-16T06:33:57.951Z,84.9
2018-01-16T06:35:02.066Z,84.7
2018-01-16T06:36:09.112Z,84.3
2018-01-16T06:37:12.509Z,84.3
2018-01-16T06:38:16.029Z,84.1
2018-01-16T06:39:19.771Z,83.9
2018-01-16T06:40:23.263Z,83.8
2018-01-16T06:41:26.350Z,83.9
2018-01-16T06:42:29.879Z,83.9
2018-01-16T06:43:34.458Z,83.9
2018-01-16T06:44:38.392Z,83.9
2018-01-16T06:45:44.692Z,83.9
2018-01-16T06:46:53.804Z,83.9
2018-01-16T06:47:58.292Z,83.9
2018-01-16T06:49:01.813Z,83.7
2018-01-16T06:50:06.442Z,83.7
2018-01-16T06:51:09.938Z,83.7
2018-01-16T06:52:14.608Z,83.7
2018-01-16T06:53:18.017Z,83.5
2018-01-16T06:54:21.362Z,83.5
2018-01-16T06:55:24.691Z,83.4
2018-01-16T06:56:28.278Z,83.5
2018-01-16T06:58:09.881Z,83.8
2018-01-16T06:59:16.413Z,83.6
2018-01-16T07:00:20.857Z,83.4
2018-01-16T07:01:24.314Z,83.4
2018-01-16T07:02:28.254Z,83.3
2018-01-16T07:03:31.486Z,83.3
2018-01-16T07:04:34.718Z,83.2
2018-01-16T07:05:39.198Z,83
2018-01-16T07:06:42.584Z,82.8
2018-01-16T07:07:47.596Z,82.7
2018-01-16T07:08:55.678Z,82.8
2018-01-16T07:09:59.749Z,82.6
2018-01-16T07:11:03.165Z,82.7
2018-01-16T07:12:06.713Z,82.4
2018-01-16T07:13:10.696Z,82.1
2018-01-16T07:14:14.308Z,82.2
2018-01-16T07:15:17.839Z,82.2
2018-01-16T07:16:22.223Z,82.2
2018-01-16T07:17:26.306Z,81.9
2018-01-16T07:18:29.606Z,81.7
2018-01-16T07:19:37.003Z,81.9
2018-01-16T07:20:40.528Z,81.8
2018-01-16T07:21:43.975Z,81.5
2018-01-16T07:22:48.084Z,81.2
2018-01-16T07:23:52.453Z,80.7
2018-01-16T07:24:56.617Z,80.8
2018-01-16T07:26:00.636Z,80.9
2018-01-16T07:27:03.861Z,81
2018-01-16T07:28:07.292Z,81.4
2018-01-16T07:29:10.629Z,81.3
2018-01-16T07:30:18.349Z,81.5
2018-01-16T07:31:21.809Z,81.6
2018-01-16T07:32:27.457Z,81.9
2018-01-16T07:33:31.012Z,81.9
2018-01-16T07:34:34.548Z,81.3
2018-01-16T07:35:38.149Z,81.1
2018-01-16T07:36:41.732Z,81
2018-01-16T07:37:45.378Z,81.1
2018-01-16T07:38:50.460Z,81.1
2018-01-16T07:39:54.503Z,81.4
2018-01-16T07:41:34.656Z,81.2
2018-01-16T07:42:38.923Z,81.3
2018-01-16T07:43:44.217Z,81.4
2018-01-16T07:44:47.661Z,81.4
2018-01-16T07:45:51.146Z,81.6
2018-01-16T07:46:56.267Z,81.8
2018-01-16T07:47:59.812Z,82.1
2018-01-16T07:49:03.757Z,82.8
2018-01-16T07:50:09.268Z,82.3
2018-01-16T07:51:13.322Z,82.2
2018-01-16T07:52:22.116Z,82.4
2018-01-16T07:53:26.374Z,82.5
2018-01-16T07:54:30.714Z,82.5
2018-01-16T07:55:36.776Z,82.8
2018-01-16T07:56:40.304Z,82.7
2018-01-16T07:57:44.229Z,82.8
2018-01-16T07:58:48.332Z,82.9
2018-01-16T07:59:52.505Z,83
2018-01-16T08:00:56.644Z,82.9
2018-01-16T08:02:01.430Z,82.9
2018-01-16T08:03:10.654Z,83.1
2018-01-16T08:04:15.143Z,82.8
2018-01-16T08:05:18.609Z,82.9
2018-01-16T08:06:22.069Z,82.8
2018-01-16T08:07:26.038Z,82.9
2018-01-16T08:08:29.473Z,82.7
2018-01-16T08:09:32.870Z,82.6
2018-01-16T08:10:36.291Z,82.8
2018-01-16T08:11:39.732Z,82.7
2018-01-16T08:12:43.216Z,82.5
2018-01-16T08:13:52.544Z,82.6
2018-01-16T08:14:56.387Z,82.7
2018-01-16T08:16:01.542Z,82.6
2018-01-16T08:17:05.029Z,82.7
2018-01-16T08:18:08.511Z,82.7
2018-01-16T08:19:12.025Z,82.4
2018-01-16T08:20:15.454Z,82.7
2018-01-16T08:21:19.558Z,82.5
2018-01-16T08:22:22.916Z,82.5
2018-01-16T08:23:26.339Z,82.5
2018-01-16T08:24:33.048Z,82.7
2018-01-16T08:25:36.292Z,82.5
2018-01-16T08:26:41.740Z,82.6
2018-01-16T08:27:45.645Z,82.9
2018-01-16T08:28:49.116Z,83.1
2018-01-16T08:29:52.463Z,83.4
2018-01-16T08:30:56.995Z,83.9
2018-01-16T08:32:02.838Z,83.7
2018-01-16T08:33:06.358Z,83.6
2018-01-16T08:34:10.729Z,83.4
2018-01-16T08:35:19.928Z,83.3
2018-01-16T08:36:23.385Z,82.8
2018-01-16T08:37:28.411Z,83
2018-01-16T08:38:33.406Z,82.4
2018-01-16T08:39:36.930Z,82.5
2018-01-16T08:40:40.839Z,82.4
2018-01-16T08:41:44.005Z,82.3
2018-01-16T08:42:48.366Z,82.2
2018-01-16T08:43:52.450Z,82.3
2018-01-16T08:44:55.932Z,82.3
2018-01-16T08:46:03.661Z,82.4
2018-01-16T08:47:07.700Z,82.9
2018-01-16T08:48:11.657Z,83.1
2018-01-16T08:49:16.481Z,83.4
2018-01-16T08:50:21.589Z,83.7
2018-01-16T08:51:25.467Z,84.1
2018-01-16T08:52:33.899Z,84.6
2018-01-16T08:53:38.027Z,84.8
2018-01-16T08:54:42.972Z,85.1
2018-01-16T08:55:48.274Z,85.2
2018-01-16T08:56:56.650Z,85.4
2018-01-16T08:58:01.208Z,85.4
2018-01-16T08:59:07.799Z,85.9
2018-01-16T09:00:12.501Z,85.6
2018-01-16T09:01:17.266Z,85.7
2018-01-16T09:02:21.208Z,86.1
2018-01-16T09:03:26.111Z,86.5
2018-01-16T09:04:30.806Z,86.8
2018-01-16T09:05:34.107Z,86.7
2018-01-16T09:06:39.052Z,86.8
2018-01-16T09:07:46.036Z,87.1
2018-01-16T09:08:49.504Z,87.1
2018-01-16T09:09:52.903Z,87.1
2018-01-16T09:10:56.860Z,87
2018-01-16T09:12:00.366Z,87.2
2018-01-16T09:13:03.839Z,87.2
2018-01-16T09:14:09.103Z,87.1
2018-01-16T09:15:12.423Z,87.3
2018-01-16T09:16:16.590Z,86.9
2018-01-16T09:17:19.951Z,86.5
2018-01-16T09:18:27.861Z,86.3
2018-01-16T09:19:31.382Z,86
2018-01-16T09:20:34.706Z,85.6
2018-01-16T09:21:42.301Z,85.6
2018-01-16T09:22:46.915Z,85
2018-01-16T09:23:50.276Z,85
2018-01-16T09:24:54.718Z,85.2
2018-01-16T09:25:58.875Z,85
2018-01-16T09:27:03.001Z,84.8
2018-01-16T09:28:07.007Z,84.6
2018-01-16T09:29:14.815Z,84.9
2018-01-16T09:30:18.305Z,84.9
2018-01-16T09:31:22.445Z,84.8
2018-01-16T09:32:27.469Z,84.9
2018-01-16T09:33:31.595Z,84.5
2018-01-16T09:34:35.577Z,84.4
2018-01-16T09:35:40.957Z,84.2
2018-01-16T09:36:45.052Z,84.1
2018-01-16T09:37:48.464Z,84
2018-01-16T09:38:52.517Z,84
2018-01-16T09:40:31.554Z,83.9
2018-01-16T09:41:35.857Z,83.5
2018-01-16T09:42:39.919Z,83.3
2018-01-16T09:43:44.678Z,83.4
2018-01-16T09:44:48.026Z,83.3
2018-01-16T09:45:52.033Z,83.4
2018-01-16T09:46:57.266Z,83.3
2018-01-16T09:48:00.822Z,83.3
2018-01-16T09:49:06.162Z,82.9
2018-01-16T09:50:10.143Z,82.5
2018-01-16T09:51:17.960Z,83.6
2018-01-16T09:52:23.126Z,83.9
2018-01-16T09:53:28.731Z,84.4
2018-01-16T09:54:32.418Z,84.1
2018-01-16T09:55:36.459Z,84.1
2018-01-16T09:56:42.108Z,84
2018-01-16T09:57:45.702Z,84
2018-01-16T09:58:49.285Z,84
2018-01-16T09:59:54.144Z,83.7
2018-01-16T10:00:58.195Z,83.6
2018-01-16T10:02:05.473Z,84
2018-01-16T10:03:09.583Z,84.2
2018-01-16T10:04:13.090Z,84.4
2018-01-16T10:05:17.123Z,84.7
2018-01-16T10:06:20.634Z,85
2018-01-16T10:07:24.235Z,85.3
2018-01-16T10:08:30.904Z,85.6
2018-01-16T10:09:35.852Z,85.8
2018-01-16T10:10:38.999Z,85.6
2018-01-16T10:11:43.489Z,85.6
2018-01-16T10:12:51.318Z,85.4
2018-01-16T10:13:54.684Z,85.6
2018-01-16T10:14:58.136Z,85.5
2018-01-16T10:16:01.674Z,85.7
2018-01-16T10:17:05.013Z,85.8
2018-01-16T10:18:09.056Z,86.2
2018-01-16T10:19:12.380Z,85.9
2018-01-16T10:20:16.969Z,86.2
2018-01-16T10:21:21.021Z,86.5
2018-01-16T10:22:25.115Z,86.9
2018-01-16T10:23:33.481Z,87
2018-01-16T10:24:37.547Z,87.1
2018-01-16T10:25:41.679Z,87.4
2018-01-16T10:26:46.400Z,87.6
2018-01-16T10:27:50.566Z,87.5
2018-01-16T10:28:54.134Z,87.2
2018-01-16T10:29:58.051Z,87.5
2018-01-16T10:31:02.357Z,87.4
2018-01-16T10:32:06.410Z,87.8
2018-01-16T10:33:10.052Z,87.9
2018-01-16T10:34:20.167Z,88.1
2018-01-16T10:35:24.084Z,88.3
2018-01-16T10:36:27.480Z,88.1
2018-01-16T10:37:33.004Z,87.9
2018-01-16T10:38:38.474Z,87.9
2018-01-16T10:39:43.118Z,88.2
2018-01-16T10:40:47.316Z,88.3
2018-01-16T10:41:52.591Z,88.2
2018-01-16T10:42:57.703Z,88.1
2018-01-16T10:44:01.579Z,87.7
2018-01-16T10:45:10.718Z,88
2018-01-16T10:46:15.473Z,87.9
2018-01-16T10:47:19.435Z,87.7
2018-01-16T10:48:23.385Z,87.8
2018-01-16T10:49:26.844Z,87.3
2018-01-16T10:50:32.748Z,87.4
2018-01-16T10:51:37.545Z,87.3
2018-01-16T10:52:44.386Z,87.2
2018-01-16T10:53:49.149Z,85.9
2018-01-16T10:54:52.507Z,85.3
2018-01-16T10:56:02.148Z,85.2
2018-01-16T10:57:08.151Z,85
2018-01-16T10:58:14.286Z,85
2018-01-16T10:59:17.788Z,85.1
2018-01-16T11:00:23.394Z,83.4
2018-01-16T11:01:27.244Z,81.8
2018-01-16T11:02:33.162Z,81.2
2018-01-16T11:03:37.172Z,81.5
2018-01-16T11:04:43.055Z,79.8
2018-01-16T11:05:48.446Z,79.6
2018-01-16T11:06:56.992Z,79.8
2018-01-16T11:08:02.382Z,79.5
2018-01-16T11:09:07.282Z,78.6
2018-01-16T11:10:12.879Z,78.5
2018-01-16T11:11:19.217Z,78.7
2018-01-16T11:12:24.503Z,78.4
2018-01-16T11:13:30.353Z,78.5
2018-01-16T11:14:35.954Z,78
2018-01-16T11:15:40.548Z,77.9
2018-01-16T11:16:49.165Z,77.9
2018-01-16T11:19:02.833Z,78.3
2018-01-16T11:20:09.650Z,77.7
2018-01-16T11:21:13.784Z,77.2
2018-01-16T11:22:18.604Z,77.4
2018-01-16T11:23:24.893Z,77.4
2018-01-16T11:24:30.385Z,77.6
2018-01-16T11:25:37.689Z,77.2
2018-01-16T11:26:42.843Z,77.2
2018-01-16T11:27:47.687Z,77.5
2018-01-16T11:28:51.054Z,77.7
2018-01-16T11:30:29.847Z,77.8
2018-01-16T11:31:33.215Z,77
2018-01-16T11:32:40.667Z,77.1
2018-01-16T11:33:44.108Z,77.4
2018-01-16T11:34:50.779Z,77.6
2018-01-16T11:35:54.132Z,78.5
2018-01-16T11:36:57.715Z,79.1
2018-01-16T11:38:01.058Z,79.8
2018-01-16T11:39:05.511Z,81.1
2018-01-16T11:40:10.028Z,81.9
2018-01-16T11:41:17.810Z,82.4
2018-01-16T11:42:22.341Z,83.4
2018-01-16T11:43:26.393Z,84
2018-01-16T11:44:32.302Z,84.4
2018-01-16T11:45:36.333Z,84.8
2018-01-16T11:46:41.905Z,85.9
2018-01-16T11:47:48.010Z,85.7
2018-01-16T11:48:52.408Z,86.1
2018-01-16T11:49:56.456Z,86.5
2018-01-16T11:51:00.652Z,87.2
2018-01-16T11:52:08.946Z,87.7
2018-01-16T11:53:13.425Z,87.6
2018-01-16T11:54:17.372Z,87.5
2018-01-16T11:55:22.745Z,87.5
2018-01-16T11:56:28.295Z,87.2
2018-01-16T11:57:34.288Z,87.2
2018-01-16T11:58:39.754Z,87
2018-01-16T11:59:43.135Z,87.1
2018-01-16T12:00:46.584Z,87.2
2018-01-16T12:01:51.233Z,87.2
2018-01-16T12:02:58.390Z,87.7
2018-01-16T12:04:02.604Z,87.1
2018-01-16T12:05:07.606Z,86.5
2018-01-16T12:06:11.082Z,84.9
2018-01-16T12:07:14.415Z,83.9
2018-01-16T12:08:17.894Z,83.7
2018-01-16T12:09:21.418Z,83.4
2018-01-16T12:10:25.918Z,83.9
2018-01-16T12:11:29.357Z,84.3
2018-01-16T12:12:32.683Z,85.2
2018-01-16T12:13:41.590Z,85.5
2018-01-16T12:14:45.540Z,86.1
2018-01-16T12:15:48.911Z,86
2018-01-16T12:16:52.348Z,85.8
2018-01-16T12:17:55.842Z,86.3
2018-01-16T12:18:59.387Z,86.8
2018-01-16T12:20:02.734Z,86.8
2018-01-16T12:21:06.244Z,86.6
2018-01-16T12:22:09.642Z,87.4
2018-01-16T12:23:13.008Z,88
2018-01-16T12:24:19.961Z,87.2
2018-01-16T12:25:23.272Z,87.3
2018-01-16T12:26:28.224Z,87.3
2018-01-16T12:27:31.621Z,85.9
2018-01-16T12:28:35.081Z,86
2018-01-16T12:29:38.403Z,86.4
2018-01-16T12:30:43.130Z,85.8
2018-01-16T12:31:46.622Z,85.7
2018-01-16T12:32:50.806Z,85.6
2018-01-16T12:33:54.887Z,85.4
2018-01-16T12:35:04.709Z,85.2
2018-01-16T12:36:10.464Z,85.1
2018-01-16T12:37:13.975Z,85.2
2018-01-16T12:38:17.278Z,85.3
2018-01-16T12:39:20.849Z,85.1
2018-01-16T12:40:24.360Z,85.1
2018-01-16T12:41:27.633Z,85.1
2018-01-16T12:42:31.757Z,85.4
2018-01-16T12:43:35.098Z,85.7
2018-01-16T12:44:39.500Z,85.8
2018-01-16T12:45:47.271Z,85.9
2018-01-16T12:46:52.608Z,86.2
2018-01-16T12:47:57.825Z,86.4
2018-01-16T12:49:01.967Z,86.1
2018-01-16T12:50:05.521Z,86.4
2018-01-16T12:51:08.944Z,86.8
2018-01-16T12:52:12.416Z,86.6
2018-01-16T12:53:17.063Z,86.7
2018-01-16T12:54:20.280Z,86.8
2018-01-16T12:55:24.311Z,86.9
2018-01-16T12:56:31.308Z,87.2
2018-01-16T12:57:34.551Z,87.1
2018-01-16T12:58:38.729Z,87.1
2018-01-16T12:59:42.821Z,87.2
2018-01-16T13:00:46.233Z,88.5
2018-01-16T13:01:50.194Z,88.1
2018-01-16T13:02:53.631Z,88.1
2018-01-16T13:03:57.688Z,88.5
2018-01-16T13:05:01.166Z,88.7
2018-01-16T13:06:06.121Z,89
2018-01-16T13:07:45.171Z,89.2
2018-01-16T13:08:49.136Z,89.9
2018-01-16T13:09:52.831Z,90
2018-01-16T13:10:57.111Z,90
2018-01-16T13:12:00.723Z,90.1
2018-01-16T13:13:04.913Z,90
2018-01-16T13:14:08.459Z,90.1
2018-01-16T13:15:12.015Z,90
2018-01-16T13:16:15.576Z,89.9
2018-01-16T13:17:18.989Z,89.2
2018-01-16T13:18:25.987Z,89
2018-01-16T13:19:29.960Z,88.7
2018-01-16T13:20:33.361Z,89.1
2018-01-16T13:21:36.833Z,89.4
2018-01-16T13:22:42.439Z,89.5
2018-01-16T13:23:45.895Z,89
2018-01-16T13:24:50.270Z,89.2
2018-01-16T13:25:54.316Z,89.5
2018-01-16T13:26:57.761Z,89.4
2018-01-16T13:28:01.751Z,89.5
2018-01-16T13:29:10.509Z,89.7
2018-01-16T13:30:14.515Z,90
2018-01-16T13:31:18.772Z,90.1
2018-01-16T13:32:25.400Z,90
2018-01-16T13:33:29.023Z,90
2018-01-16T13:34:32.902Z,90
2018-01-16T13:35:36.374Z,90.1
2018-01-16T13:36:39.834Z,90.2
2018-01-16T13:37:43.414Z,90
2018-01-16T13:38:46.868Z,90.1
2018-01-16T13:40:26.405Z,90.1
2018-01-16T13:41:30.356Z,90.1
2018-01-16T13:42:34.480Z,90.1
2018-01-16T13:43:37.901Z,90.1
2018-01-16T13:44:41.274Z,90.1
2018-01-16T13:45:44.678Z,90
2018-01-16T13:46:47.834Z,89.9
2018-01-16T13:47:51.356Z,89.9
2018-01-16T13:48:55.390Z,89.8
2018-01-16T13:49:58.877Z,90
2018-01-16T13:51:05.415Z,89.8
2018-01-16T13:52:11.973Z,89.6
2018-01-16T13:53:15.185Z,89.2
2018-01-16T13:54:18.581Z,89
2018-01-16T13:55:22.073Z,89
2018-01-16T13:56:25.560Z,88.9
2018-01-16T13:57:31.495Z,88.9
2018-01-16T13:58:34.890Z,88.8
2018-01-16T13:59:40.533Z,88.9
2018-01-16T14:00:45.389Z,88.9
2018-01-16T14:01:53.248Z,89
2018-01-16T14:02:57.256Z,88.5
2018-01-16T14:04:01.392Z,89.8
2018-01-16T14:05:05.508Z,89
2018-01-16T14:06:08.906Z,89.2
2018-01-16T14:07:12.448Z,89.1
2018-01-16T14:08:15.963Z,88.8
2018-01-16T14:09:20.415Z,88.9
2018-01-16T14:10:24.489Z,88.4
2018-01-16T14:11:28.484Z,87.8
2018-01-16T14:12:37.598Z,87.1
2018-01-16T14:13:41.611Z,85.9
2018-01-16T14:14:46.610Z,85
2018-01-16T14:15:49.999Z,84.5
2018-01-16T14:16:56.879Z,83.7
2018-01-16T14:18:01.224Z,83.1
2018-01-16T14:19:05.099Z,83
2018-01-16T14:20:11.899Z,83
2018-01-16T14:21:16.654Z,83.2
2018-01-16T14:22:20.864Z,83.6
2018-01-16T14:23:32.493Z,84.9
2018-01-16T14:24:35.976Z,84.7
2018-01-16T14:25:44.191Z,85
2018-01-16T14:26:48.155Z,85.5
2018-01-16T14:27:54.286Z,85.8
2018-01-16T14:28:59.977Z,85.4